sensor_id;sensor_type;location;lat;lon;timestamp;temperature;humidity
13598;DHT22;38563;54.258;12.574;2023-06-24T00:00:01;16.90;99.90
13598;DHT22;38563;54.258;12.574;2023-06-24T00:02:32;16.90;99.90
13598;DHT22;38563;54.258;12.574;2023-06-24T00:05:02;16.90;99.90
13598;DHT22;38563;54.258;12.574;2023-06-24T00:07:30;16.90;99.90
13598;DHT22;38563;54.258;12.574;2023-06-24T00:09:57;17.00;99.90
13598;DHT22;38563;54.258;12.574;2023-06-24T00:12:25;17.00;99.90
13598;DHT22;38563;54.258;12.574;2023-06-24T00:14:52;17.00;99.90
13598;DHT22;38563;54.258;12.574;2023-06-24T00:17:18;17.00;99.90
13598;DHT22;38563;54.258;12.574;2023-06-24T00:19:45;16.90;99.90
13598;DHT22;38563;54.258;12.574;2023-06-24T00:22:12;16.90;99.90
13598;DHT22;38563;54.258;12.574;2023-06-24T00:24:39;16.90;99.90
13598;DHT22;38563;54.258;12.574;2023-06-24T00:27:06;16.90;99.90
13598;DHT22;38563;54.258;12.574;2023-06-24T00:29:34;16.90;99.90
13598;DHT22;38563;54.258;12.574;2023-06-24T00:32:01;16.90;99.90
13598;DHT22;38563;54.258;12.574;2023-06-24T00:34:28;16.90;99.90
13598;DHT22;38563;54.258;12.574;2023-06-24T00:36:55;17.00;99.90
13598;DHT22;38563;54.258;12.574;2023-06-24T00:39:22;17.00;99.90
13598;DHT22;38563;54.258;12.574;2023-06-24T00:41:49;17.00;99.90
13598;DHT22;38563;54.258;12.574;2023-06-24T00:44:16;16.90;99.90
13598;DHT22;38563;54.258;12.574;2023-06-24T00:46:44;16.90;99.90
13598;DHT22;38563;54.258;12.574;2023-06-24T00:49:11;16.80;99.90
13598;DHT22;38563;54.258;12.574;2023-06-24T00:51:40;16.80;99.90
13598;DHT22;38563;54.258;12.574;2023-06-24T00:54:12;16.80;99.90
13598;DHT22;38563;54.258;12.574;2023-06-24T00:56:39;16.80;99.90
13598;DHT22;38563;54.258;12.574;2023-06-24T00:59:10;16.70;99.90
13598;DHT22;38563;54.258;12.574;2023-06-24T01:01:38;16.70;99.90
13598;DHT22;38563;54.258;12.574;2023-06-24T01:04:07;16.60;99.90
13598;DHT22;38563;54.258;12.574;2023-06-24T01:06:35;16.60;99.90
13598;DHT22;38563;54.258;12.574;2023-06-24T01:09:08;16.70;99.90
13598;DHT22;38563;54.258;12.574;2023-06-24T01:11:35;16.70;99.90
13598;DHT22;38563;54.258;12.574;2023-06-24T01:14:02;16.70;99.90
13598;DHT22;38563;54.258;12.574;2023-06-24T01:16:35;16.70;99.90
13598;DHT22;38563;54.258;12.574;2023-06-24T01:19:17;16.60;99.90
13598;DHT22;38563;54.258;12.574;2023-06-24T01:22:02;16.50;99.90
13598;DHT22;38563;54.258;12.574;2023-06-24T01:24:41;16.50;99.90
13598;DHT22;38563;54.258;12.574;2023-06-24T01:27:43;16.50;99.90
13598;DHT22;38563;54.258;12.574;2023-06-24T01:30:35;16.40;99.90
13598;DHT22;38563;54.258;12.574;2023-06-24T01:33:11;16.40;99.90
13598;DHT22;38563;54.258;12.574;2023-06-24T01:35:41;16.40;99.90
13598;DHT22;38563;54.258;12.574;2023-06-24T01:38:14;16.40;99.90
13598;DHT22;38563;54.258;12.574;2023-06-24T01:40:44;16.30;99.90
13598;DHT22;38563;54.258;12.574;2023-06-24T01:43:14;16.30;99.90
13598;DHT22;38563;54.258;12.574;2023-06-24T01:45:45;16.30;99.90
13598;DHT22;38563;54.258;12.574;2023-06-24T01:48:15;16.30;99.90
13598;DHT22;38563;54.258;12.574;2023-06-24T01:50:45;16.30;99.90
13598;DHT22;38563;54.258;12.574;2023-06-24T01:53:17;16.30;99.90
13598;DHT22;38563;54.258;12.574;2023-06-24T01:55:46;16.20;99.90
13598;DHT22;38563;54.258;12.574;2023-06-24T01:58:17;16.20;99.90
13598;DHT22;38563;54.258;12.574;2023-06-24T02:00:45;16.20;99.90
13598;DHT22;38563;54.258;12.574;2023-06-24T02:03:16;16.10;99.90
13598;DHT22;38563;54.258;12.574;2023-06-24T02:05:44;16.10;99.90
13598;DHT22;38563;54.258;12.574;2023-06-24T02:08:13;16.00;99.90
13598;DHT22;38563;54.258;12.574;2023-06-24T02:10:41;16.00;99.90
13598;DHT22;38563;54.258;12.574;2023-06-24T02:13:10;16.00;99.90
13598;DHT22;38563;54.258;12.574;2023-06-24T02:15:39;16.00;99.90
13598;DHT22;38563;54.258;12.574;2023-06-24T02:18:07;16.00;99.90
13598;DHT22;38563;54.258;12.574;2023-06-24T02:20:37;15.90;99.90
13598;DHT22;38563;54.258;12.574;2023-06-24T02:23:06;16.00;99.90
13598;DHT22;38563;54.258;12.574;2023-06-24T02:25:35;16.00;99.90
13598;DHT22;38563;54.258;12.574;2023-06-24T02:28:05;15.90;99.90
13598;DHT22;38563;54.258;12.574;2023-06-24T02:30:38;15.90;99.90
13598;DHT22;38563;54.258;12.574;2023-06-24T02:33:05;15.90;99.90
13598;DHT22;38563;54.258;12.574;2023-06-24T02:35:32;15.90;99.90
13598;DHT22;38563;54.258;12.574;2023-06-24T02:38:00;15.90;99.90
13598;DHT22;38563;54.258;12.574;2023-06-24T02:40:28;15.90;99.90
13598;DHT22;38563;54.258;12.574;2023-06-24T02:42:56;15.90;99.90
13598;DHT22;38563;54.258;12.574;2023-06-24T02:45:23;15.90;99.90
13598;DHT22;38563;54.258;12.574;2023-06-24T02:47:51;15.90;99.90
13598;DHT22;38563;54.258;12.574;2023-06-24T02:50:19;15.90;99.90
13598;DHT22;38563;54.258;12.574;2023-06-24T02:52:48;15.90;99.90
13598;DHT22;38563;54.258;12.574;2023-06-24T02:55:19;15.90;99.90
13598;DHT22;38563;54.258;12.574;2023-06-24T02:57:50;15.90;99.90
13598;DHT22;38563;54.258;12.574;2023-06-24T03:00:37;15.90;99.90
13598;DHT22;38563;54.258;12.574;2023-06-24T03:03:10;15.90;99.90
13598;DHT22;38563;54.258;12.574;2023-06-24T03:05:44;15.90;99.90
13598;DHT22;38563;54.258;12.574;2023-06-24T03:08:16;15.90;99.90
13598;DHT22;38563;54.258;12.574;2023-06-24T03:10:46;15.80;99.90
13598;DHT22;38563;54.258;12.574;2023-06-24T03:13:18;15.80;99.90
13598;DHT22;38563;54.258;12.574;2023-06-24T03:15:50;15.80;99.90
13598;DHT22;38563;54.258;12.574;2023-06-24T03:18:17;15.70;99.90
13598;DHT22;38563;54.258;12.574;2023-06-24T03:20:46;15.60;99.90
13598;DHT22;38563;54.258;12.574;2023-06-24T03:23:17;15.50;99.90
13598;DHT22;38563;54.258;12.574;2023-06-24T03:25:44;15.40;99.90
13598;DHT22;38563;54.258;12.574;2023-06-24T03:28:12;15.40;99.90
13598;DHT22;38563;54.258;12.574;2023-06-24T03:30:45;15.40;99.90
13598;DHT22;38563;54.258;12.574;2023-06-24T03:33:16;15.30;99.90
13598;DHT22;38563;54.258;12.574;2023-06-24T03:35:44;15.30;99.90
13598;DHT22;38563;54.258;12.574;2023-06-24T03:38:14;15.30;99.90
13598;DHT22;38563;54.258;12.574;2023-06-24T03:40:41;15.20;99.90
13598;DHT22;38563;54.258;12.574;2023-06-24T03:43:09;15.20;99.90
13598;DHT22;38563;54.258;12.574;2023-06-24T03:45:37;15.20;99.90
13598;DHT22;38563;54.258;12.574;2023-06-24T03:48:05;15.10;99.90
13598;DHT22;38563;54.258;12.574;2023-06-24T03:50:32;15.10;99.90
13598;DHT22;38563;54.258;12.574;2023-06-24T03:52:59;15.20;99.90
13598;DHT22;38563;54.258;12.574;2023-06-24T03:55:27;15.20;99.90
13598;DHT22;38563;54.258;12.574;2023-06-24T03:57:54;15.20;99.90
13598;DHT22;38563;54.258;12.574;2023-06-24T04:00:20;15.20;99.90
13598;DHT22;38563;54.258;12.574;2023-06-24T04:02:50;15.20;99.90
13598;DHT22;38563;54.258;12.574;2023-06-24T04:05:17;15.30;99.90
13598;DHT22;38563;54.258;12.574;2023-06-24T04:07:44;15.30;99.90
13598;DHT22;38563;54.258;12.574;2023-06-24T04:10:13;15.30;99.90
13598;DHT22;38563;54.258;12.574;2023-06-24T04:12:39;15.40;99.90
13598;DHT22;38563;54.258;12.574;2023-06-24T04:15:07;15.50;99.90
13598;DHT22;38563;54.258;12.574;2023-06-24T04:17:34;15.60;99.90
13598;DHT22;38563;54.258;12.574;2023-06-24T04:20:03;15.70;99.90
13598;DHT22;38563;54.258;12.574;2023-06-24T04:22:32;15.90;99.90
13598;DHT22;38563;54.258;12.574;2023-06-24T04:24:59;16.00;99.90
13598;DHT22;38563;54.258;12.574;2023-06-24T04:27:26;16.10;99.90
13598;DHT22;38563;54.258;12.574;2023-06-24T04:29:52;16.20;99.90
13598;DHT22;38563;54.258;12.574;2023-06-24T04:32:19;16.20;99.90
13598;DHT22;38563;54.258;12.574;2023-06-24T04:34:46;16.30;99.90
13598;DHT22;38563;54.258;12.574;2023-06-24T04:37:15;16.40;99.90
13598;DHT22;38563;54.258;12.574;2023-06-24T04:39:43;16.40;99.90
13598;DHT22;38563;54.258;12.574;2023-06-24T04:42:11;16.50;99.90
13598;DHT22;38563;54.258;12.574;2023-06-24T04:44:38;16.50;99.90
13598;DHT22;38563;54.258;12.574;2023-06-24T04:47:04;16.50;99.90
13598;DHT22;38563;54.258;12.574;2023-06-24T04:49:31;16.60;99.90
13598;DHT22;38563;54.258;12.574;2023-06-24T04:51:59;16.70;99.90
13598;DHT22;38563;54.258;12.574;2023-06-24T04:54:28;16.70;99.90
13598;DHT22;38563;54.258;12.574;2023-06-24T04:56:54;16.70;99.90
13598;DHT22;38563;54.258;12.574;2023-06-24T04:59:22;16.70;99.90
13598;DHT22;38563;54.258;12.574;2023-06-24T05:01:49;16.80;99.90
13598;DHT22;38563;54.258;12.574;2023-06-24T05:04:16;16.80;99.90
13598;DHT22;38563;54.258;12.574;2023-06-24T05:06:43;16.80;99.90
13598;DHT22;38563;54.258;12.574;2023-06-24T05:09:09;16.90;99.90
13598;DHT22;38563;54.258;12.574;2023-06-24T05:11:40;16.90;99.90
13598;DHT22;38563;54.258;12.574;2023-06-24T05:14:07;17.00;99.90
13598;DHT22;38563;54.258;12.574;2023-06-24T05:16:34;17.00;99.90
13598;DHT22;38563;54.258;12.574;2023-06-24T05:19:00;17.10;99.90
13598;DHT22;38563;54.258;12.574;2023-06-24T05:21:27;17.20;99.90
13598;DHT22;38563;54.258;12.574;2023-06-24T05:23:54;17.30;99.90
13598;DHT22;38563;54.258;12.574;2023-06-24T05:26:20;17.50;99.90
13598;DHT22;38563;54.258;12.574;2023-06-24T05:28:48;17.60;99.90
13598;DHT22;38563;54.258;12.574;2023-06-24T05:31:15;17.80;99.90
13598;DHT22;38563;54.258;12.574;2023-06-24T05:33:42;17.80;99.90
13598;DHT22;38563;54.258;12.574;2023-06-24T05:36:09;17.80;99.90
13598;DHT22;38563;54.258;12.574;2023-06-24T05:38:35;17.80;99.90
13598;DHT22;38563;54.258;12.574;2023-06-24T05:41:02;17.90;99.90
13598;DHT22;38563;54.258;12.574;2023-06-24T05:43:29;17.80;99.90
13598;DHT22;38563;54.258;12.574;2023-06-24T05:45:57;17.80;99.90
13598;DHT22;38563;54.258;12.574;2023-06-24T05:48:24;17.90;99.90
13598;DHT22;38563;54.258;12.574;2023-06-24T05:50:50;17.90;99.90
13598;DHT22;38563;54.258;12.574;2023-06-24T05:53:17;17.90;99.90
13598;DHT22;38563;54.258;12.574;2023-06-24T05:55:44;18.10;99.90
13598;DHT22;38563;54.258;12.574;2023-06-24T05:58:10;18.10;99.90
13598;DHT22;38563;54.258;12.574;2023-06-24T06:00:37;18.20;99.90
13598;DHT22;38563;54.258;12.574;2023-06-24T06:03:05;18.50;99.90
13598;DHT22;38563;54.258;12.574;2023-06-24T06:05:32;18.60;99.90
13598;DHT22;38563;54.258;12.574;2023-06-24T06:07:59;18.70;99.90
13598;DHT22;38563;54.258;12.574;2023-06-24T06:10:25;18.70;99.90
13598;DHT22;38563;54.258;12.574;2023-06-24T06:12:52;18.40;99.90
13598;DHT22;38563;54.258;12.574;2023-06-24T06:15:19;18.20;99.90
13598;DHT22;38563;54.258;12.574;2023-06-24T06:17:46;18.10;99.90
13598;DHT22;38563;54.258;12.574;2023-06-24T06:20:14;18.00;99.90
13598;DHT22;38563;54.258;12.574;2023-06-24T06:22:41;17.90;99.90
13598;DHT22;38563;54.258;12.574;2023-06-24T06:25:08;18.00;99.90
13598;DHT22;38563;54.258;12.574;2023-06-24T06:27:35;18.20;99.90
13598;DHT22;38563;54.258;12.574;2023-06-24T06:30:02;18.30;99.90
13598;DHT22;38563;54.258;12.574;2023-06-24T06:32:29;18.40;99.90
13598;DHT22;38563;54.258;12.574;2023-06-24T06:34:56;18.60;99.90
13598;DHT22;38563;54.258;12.574;2023-06-24T06:37:24;18.60;99.90
13598;DHT22;38563;54.258;12.574;2023-06-24T06:39:51;18.50;99.90
13598;DHT22;38563;54.258;12.574;2023-06-24T06:42:17;18.70;99.90
13598;DHT22;38563;54.258;12.574;2023-06-24T06:44:44;18.60;99.90
13598;DHT22;38563;54.258;12.574;2023-06-24T06:47:11;18.40;99.90
13598;DHT22;38563;54.258;12.574;2023-06-24T06:49:38;18.30;99.90
13598;DHT22;38563;54.258;12.574;2023-06-24T06:52:06;18.20;99.90
13598;DHT22;38563;54.258;12.574;2023-06-24T06:54:34;18.20;99.90
13598;DHT22;38563;54.258;12.574;2023-06-24T06:57:01;18.30;99.90
13598;DHT22;38563;54.258;12.574;2023-06-24T06:59:29;18.50;99.90
13598;DHT22;38563;54.258;12.574;2023-06-24T07:01:56;18.80;99.90
13598;DHT22;38563;54.258;12.574;2023-06-24T07:04:23;18.70;99.90
13598;DHT22;38563;54.258;12.574;2023-06-24T07:06:49;18.60;99.90
13598;DHT22;38563;54.258;12.574;2023-06-24T07:09:16;18.40;99.90
13598;DHT22;38563;54.258;12.574;2023-06-24T07:11:44;18.40;99.90
13598;DHT22;38563;54.258;12.574;2023-06-24T07:14:11;18.30;99.90
13598;DHT22;38563;54.258;12.574;2023-06-24T07:16:38;18.60;99.90
13598;DHT22;38563;54.258;12.574;2023-06-24T07:19:05;19.00;99.90
13598;DHT22;38563;54.258;12.574;2023-06-24T07:21:31;18.90;99.90
13598;DHT22;38563;54.258;12.574;2023-06-24T07:23:58;18.90;99.90
13598;DHT22;38563;54.258;12.574;2023-06-24T07:26:25;18.80;99.90
13598;DHT22;38563;54.258;12.574;2023-06-24T07:28:56;18.70;99.90
13598;DHT22;38563;54.258;12.574;2023-06-24T07:31:23;18.50;99.90
13598;DHT22;38563;54.258;12.574;2023-06-24T07:33:50;18.30;99.90
13598;DHT22;38563;54.258;12.574;2023-06-24T07:36:17;18.30;99.90
13598;DHT22;38563;54.258;12.574;2023-06-24T07:38:44;18.50;99.90
13598;DHT22;38563;54.258;12.574;2023-06-24T07:41:11;18.50;99.90
13598;DHT22;38563;54.258;12.574;2023-06-24T07:43:37;18.40;99.90
13598;DHT22;38563;54.258;12.574;2023-06-24T07:46:05;18.50;99.90
13598;DHT22;38563;54.258;12.574;2023-06-24T07:48:32;18.70;99.90
13598;DHT22;38563;54.258;12.574;2023-06-24T07:50:59;18.90;99.90
13598;DHT22;38563;54.258;12.574;2023-06-24T07:53:26;19.10;99.90
13598;DHT22;38563;54.258;12.574;2023-06-24T07:55:52;19.50;99.90
13598;DHT22;38563;54.258;12.574;2023-06-24T07:58:19;19.90;99.90
13598;DHT22;38563;54.258;12.574;2023-06-24T08:00:46;20.10;99.90
13598;DHT22;38563;54.258;12.574;2023-06-24T08:03:14;20.60;99.90
13598;DHT22;38563;54.258;12.574;2023-06-24T08:05:40;21.70;99.90
13598;DHT22;38563;54.258;12.574;2023-06-24T08:08:08;22.80;99.90
13598;DHT22;38563;54.258;12.574;2023-06-24T08:10:35;23.50;99.90
13598;DHT22;38563;54.258;12.574;2023-06-24T08:13:01;23.00;99.90
13598;DHT22;38563;54.258;12.574;2023-06-24T08:15:28;22.10;99.90
13598;DHT22;38563;54.258;12.574;2023-06-24T08:17:55;21.50;99.90
13598;DHT22;38563;54.258;12.574;2023-06-24T08:20:23;21.10;99.90
13598;DHT22;38563;54.258;12.574;2023-06-24T08:22:50;21.00;99.90
13598;DHT22;38563;54.258;12.574;2023-06-24T08:25:17;21.20;99.90
13598;DHT22;38563;54.258;12.574;2023-06-24T08:27:43;22.10;99.90
13598;DHT22;38563;54.258;12.574;2023-06-24T08:30:12;21.80;99.90
13598;DHT22;38563;54.258;12.574;2023-06-24T08:32:39;21.20;99.90
13598;DHT22;38563;54.258;12.574;2023-06-24T08:35:07;21.20;99.90
13598;DHT22;38563;54.258;12.574;2023-06-24T08:37:36;21.70;99.90
13598;DHT22;38563;54.258;12.574;2023-06-24T08:40:04;21.50;99.90
13598;DHT22;38563;54.258;12.574;2023-06-24T08:42:30;21.60;99.90
13598;DHT22;38563;54.258;12.574;2023-06-24T08:44:57;21.60;99.90
13598;DHT22;38563;54.258;12.574;2023-06-24T08:47:25;21.70;99.90
13598;DHT22;38563;54.258;12.574;2023-06-24T08:49:53;21.70;99.90
13598;DHT22;38563;54.258;12.574;2023-06-24T08:52:25;21.60;99.90
13598;DHT22;38563;54.258;12.574;2023-06-24T08:54:55;21.10;99.90
13598;DHT22;38563;54.258;12.574;2023-06-24T08:57:23;20.60;99.90
13598;DHT22;38563;54.258;12.574;2023-06-24T08:59:50;21.20;99.90
13598;DHT22;38563;54.258;12.574;2023-06-24T09:02:17;22.00;99.90
13598;DHT22;38563;54.258;12.574;2023-06-24T09:04:43;22.00;99.90
13598;DHT22;38563;54.258;12.574;2023-06-24T09:07:10;22.30;99.90
13598;DHT22;38563;54.258;12.574;2023-06-24T09:09:42;22.70;99.90
13598;DHT22;38563;54.258;12.574;2023-06-24T09:12:15;23.10;99.90
13598;DHT22;38563;54.258;12.574;2023-06-24T09:14:41;22.60;99.90
13598;DHT22;38563;54.258;12.574;2023-06-24T09:17:13;22.80;99.90
13598;DHT22;38563;54.258;12.574;2023-06-24T09:19:40;22.30;99.90
13598;DHT22;38563;54.258;12.574;2023-06-24T09:22:08;21.90;99.90
13598;DHT22;38563;54.258;12.574;2023-06-24T09:24:42;22.00;99.90
13598;DHT22;38563;54.258;12.574;2023-06-24T09:27:12;22.00;99.90
13598;DHT22;38563;54.258;12.574;2023-06-24T09:29:40;22.20;99.90
13598;DHT22;38563;54.258;12.574;2023-06-24T09:32:07;22.20;99.90
13598;DHT22;38563;54.258;12.574;2023-06-24T09:34:35;22.30;99.90
13598;DHT22;38563;54.258;12.574;2023-06-24T09:37:01;22.30;99.90
13598;DHT22;38563;54.258;12.574;2023-06-24T09:39:35;22.70;99.90
13598;DHT22;38563;54.258;12.574;2023-06-24T09:42:03;22.70;99.90
13598;DHT22;38563;54.258;12.574;2023-06-24T09:44:31;22.80;99.90
13598;DHT22;38563;54.258;12.574;2023-06-24T09:46:58;23.00;99.90
13598;DHT22;38563;54.258;12.574;2023-06-24T09:49:25;23.20;99.90
13598;DHT22;38563;54.258;12.574;2023-06-24T09:51:55;23.50;99.90
13598;DHT22;38563;54.258;12.574;2023-06-24T09:54:25;23.40;99.90
13598;DHT22;38563;54.258;12.574;2023-06-24T09:56:54;23.30;99.90
13598;DHT22;38563;54.258;12.574;2023-06-24T09:59:21;22.90;99.90
13598;DHT22;38563;54.258;12.574;2023-06-24T10:01:53;22.70;99.90
13598;DHT22;38563;54.258;12.574;2023-06-24T10:04:21;22.80;99.90
13598;DHT22;38563;54.258;12.574;2023-06-24T10:06:48;23.20;99.90
13598;DHT22;38563;54.258;12.574;2023-06-24T10:09:16;23.00;99.90
13598;DHT22;38563;54.258;12.574;2023-06-24T10:11:45;23.30;99.90
13598;DHT22;38563;54.258;12.574;2023-06-24T10:14:12;23.30;99.90
13598;DHT22;38563;54.258;12.574;2023-06-24T10:16:40;23.50;99.90
13598;DHT22;38563;54.258;12.574;2023-06-24T10:19:08;23.60;99.90
13598;DHT22;38563;54.258;12.574;2023-06-24T10:21:45;23.90;99.90
13598;DHT22;38563;54.258;12.574;2023-06-24T10:24:13;23.90;99.90
13598;DHT22;38563;54.258;12.574;2023-06-24T10:26:40;23.80;99.90
13598;DHT22;38563;54.258;12.574;2023-06-24T10:29:10;23.80;99.90
13598;DHT22;38563;54.258;12.574;2023-06-24T10:31:52;23.80;99.90
13598;DHT22;38563;54.258;12.574;2023-06-24T10:34:41;23.80;99.90
13598;DHT22;38563;54.258;12.574;2023-06-24T10:37:10;23.60;99.90
13598;DHT22;38563;54.258;12.574;2023-06-24T10:39:39;23.40;99.90
13598;DHT22;38563;54.258;12.574;2023-06-24T10:42:37;23.10;99.90
13598;DHT22;38563;54.258;12.574;2023-06-24T10:45:17;23.10;99.90
13598;DHT22;38563;54.258;12.574;2023-06-24T10:47:46;23.10;99.90
13598;DHT22;38563;54.258;12.574;2023-06-24T10:50:15;23.20;99.90
13598;DHT22;38563;54.258;12.574;2023-06-24T10:52:44;23.60;99.90
13598;DHT22;38563;54.258;12.574;2023-06-24T10:55:13;23.90;99.90
13598;DHT22;38563;54.258;12.574;2023-06-24T10:57:41;23.70;99.90
13598;DHT22;38563;54.258;12.574;2023-06-24T11:00:08;23.60;99.90
13598;DHT22;38563;54.258;12.574;2023-06-24T11:02:35;23.50;99.90
13598;DHT22;38563;54.258;12.574;2023-06-24T11:05:04;23.30;99.90
13598;DHT22;38563;54.258;12.574;2023-06-24T11:07:33;23.50;99.90
13598;DHT22;38563;54.258;12.574;2023-06-24T11:10:05;23.70;99.90
13598;DHT22;38563;54.258;12.574;2023-06-24T11:12:34;23.70;99.90
13598;DHT22;38563;54.258;12.574;2023-06-24T11:15:02;23.90;99.90
13598;DHT22;38563;54.258;12.574;2023-06-24T11:17:29;24.20;99.90
13598;DHT22;38563;54.258;12.574;2023-06-24T11:19:57;24.20;99.90
13598;DHT22;38563;54.258;12.574;2023-06-24T11:22:25;24.00;99.90
13598;DHT22;38563;54.258;12.574;2023-06-24T11:24:54;23.90;99.90
13598;DHT22;38563;54.258;12.574;2023-06-24T11:27:25;23.90;99.90
13598;DHT22;38563;54.258;12.574;2023-06-24T11:29:52;23.90;99.90
13598;DHT22;38563;54.258;12.574;2023-06-24T11:32:19;24.00;99.90
13598;DHT22;38563;54.258;12.574;2023-06-24T11:34:47;24.20;99.90
13598;DHT22;38563;54.258;12.574;2023-06-24T11:37:16;24.10;99.90
13598;DHT22;38563;54.258;12.574;2023-06-24T11:39:44;23.90;99.90
13598;DHT22;38563;54.258;12.574;2023-06-24T11:42:14;23.50;99.90
13598;DHT22;38563;54.258;12.574;2023-06-24T11:44:43;22.90;99.90
13598;DHT22;38563;54.258;12.574;2023-06-24T11:47:11;23.20;99.90
13598;DHT22;38563;54.258;12.574;2023-06-24T11:49:51;23.50;99.90
13598;DHT22;38563;54.258;12.574;2023-06-24T11:52:18;23.80;99.90
13598;DHT22;38563;54.258;12.574;2023-06-24T11:54:45;23.90;99.90
13598;DHT22;38563;54.258;12.574;2023-06-24T11:57:13;24.20;99.90
13598;DHT22;38563;54.258;12.574;2023-06-24T11:59:42;24.30;99.90
13598;DHT22;38563;54.258;12.574;2023-06-24T12:02:13;24.50;99.90
13598;DHT22;38563;54.258;12.574;2023-06-24T12:04:43;24.20;99.90
13598;DHT22;38563;54.258;12.574;2023-06-24T12:07:10;24.30;99.90
13598;DHT22;38563;54.258;12.574;2023-06-24T12:09:37;24.60;99.90
13598;DHT22;38563;54.258;12.574;2023-06-24T12:12:04;24.20;99.90
13598;DHT22;38563;54.258;12.574;2023-06-24T12:14:33;24.30;99.90
13598;DHT22;38563;54.258;12.574;2023-06-24T12:17:00;24.40;99.90
13598;DHT22;38563;54.258;12.574;2023-06-24T12:19:27;24.40;99.90
13598;DHT22;38563;54.258;12.574;2023-06-24T12:21:54;24.30;99.90
13598;DHT22;38563;54.258;12.574;2023-06-24T12:24:22;24.70;99.90
13598;DHT22;38563;54.258;12.574;2023-06-24T12:26:48;24.80;99.90
13598;DHT22;38563;54.258;12.574;2023-06-24T12:29:15;24.70;99.90
13598;DHT22;38563;54.258;12.574;2023-06-24T12:31:43;24.30;99.90
13598;DHT22;38563;54.258;12.574;2023-06-24T12:34:10;23.90;99.90
13598;DHT22;38563;54.258;12.574;2023-06-24T12:36:36;23.80;99.90
13598;DHT22;38563;54.258;12.574;2023-06-24T12:39:03;24.20;99.90
13598;DHT22;38563;54.258;12.574;2023-06-24T12:41:30;24.70;99.90
13598;DHT22;38563;54.258;12.574;2023-06-24T12:43:56;24.80;99.90
13598;DHT22;38563;54.258;12.574;2023-06-24T12:46:24;24.70;99.90
13598;DHT22;38563;54.258;12.574;2023-06-24T12:48:52;24.40;99.90
13598;DHT22;38563;54.258;12.574;2023-06-24T12:51:19;24.20;99.90
13598;DHT22;38563;54.258;12.574;2023-06-24T12:53:45;23.70;99.90
13598;DHT22;38563;54.258;12.574;2023-06-24T12:56:12;23.40;99.90
13598;DHT22;38563;54.258;12.574;2023-06-24T12:58:39;23.40;99.90
13598;DHT22;38563;54.258;12.574;2023-06-24T13:01:05;23.60;99.90
13598;DHT22;38563;54.258;12.574;2023-06-24T13:03:32;24.10;99.90
13598;DHT22;38563;54.258;12.574;2023-06-24T13:06:00;24.40;99.90
13598;DHT22;38563;54.258;12.574;2023-06-24T13:08:27;24.90;99.90
13598;DHT22;38563;54.258;12.574;2023-06-24T13:10:53;25.20;99.90
13598;DHT22;38563;54.258;12.574;2023-06-24T13:13:20;24.90;99.90
13598;DHT22;38563;54.258;12.574;2023-06-24T13:15:47;25.00;99.90
13598;DHT22;38563;54.258;12.574;2023-06-24T13:18:13;25.20;99.90
13598;DHT22;38563;54.258;12.574;2023-06-24T13:20:40;25.20;99.90
13598;DHT22;38563;54.258;12.574;2023-06-24T13:23:08;25.00;99.90
13598;DHT22;38563;54.258;12.574;2023-06-24T13:25:36;24.80;99.90
13598;DHT22;38563;54.258;12.574;2023-06-24T13:28:03;24.40;99.90
13598;DHT22;38563;54.258;12.574;2023-06-24T13:30:29;24.10;99.90
13598;DHT22;38563;54.258;12.574;2023-06-24T13:32:56;24.20;99.90
13598;DHT22;38563;54.258;12.574;2023-06-24T13:35:23;24.40;99.90
13598;DHT22;38563;54.258;12.574;2023-06-24T13:37:49;24.80;99.90
13598;DHT22;38563;54.258;12.574;2023-06-24T13:40:17;24.90;99.90
13598;DHT22;38563;54.258;12.574;2023-06-24T13:42:44;25.20;99.90
13598;DHT22;38563;54.258;12.574;2023-06-24T13:45:11;25.60;99.90
13598;DHT22;38563;54.258;12.574;2023-06-24T13:47:38;25.70;99.90
13598;DHT22;38563;54.258;12.574;2023-06-24T13:50:05;26.00;99.90
13598;DHT22;38563;54.258;12.574;2023-06-24T13:52:33;25.90;99.90
13598;DHT22;38563;54.258;12.574;2023-06-24T13:54:59;26.20;99.90
13598;DHT22;38563;54.258;12.574;2023-06-24T13:57:27;26.30;99.90
13598;DHT22;38563;54.258;12.574;2023-06-24T13:59:54;26.20;99.90
13598;DHT22;38563;54.258;12.574;2023-06-24T14:02:21;26.10;99.90
13598;DHT22;38563;54.258;12.574;2023-06-24T14:04:47;26.20;99.90
13598;DHT22;38563;54.258;12.574;2023-06-24T14:07:14;26.20;99.90
13598;DHT22;38563;54.258;12.574;2023-06-24T14:09:41;26.30;99.90
13598;DHT22;38563;54.258;12.574;2023-06-24T14:12:08;26.40;99.90
13598;DHT22;38563;54.258;12.574;2023-06-24T14:14:37;26.30;99.90
13598;DHT22;38563;54.258;12.574;2023-06-24T14:17:05;26.20;99.90
13598;DHT22;38563;54.258;12.574;2023-06-24T14:19:34;26.10;99.90
13598;DHT22;38563;54.258;12.574;2023-06-24T14:22:00;26.40;99.90
13598;DHT22;38563;54.258;12.574;2023-06-24T14:24:27;26.50;99.90
13598;DHT22;38563;54.258;12.574;2023-06-24T14:26:54;26.60;99.90
13598;DHT22;38563;54.258;12.574;2023-06-24T14:29:21;26.60;99.90
13598;DHT22;38563;54.258;12.574;2023-06-24T14:31:49;26.60;99.90
13598;DHT22;38563;54.258;12.574;2023-06-24T14:34:15;26.50;99.90
13598;DHT22;38563;54.258;12.574;2023-06-24T14:36:42;26.20;99.90
13598;DHT22;38563;54.258;12.574;2023-06-24T14:39:09;26.20;99.90
13598;DHT22;38563;54.258;12.574;2023-06-24T14:41:35;26.70;99.90
13598;DHT22;38563;54.258;12.574;2023-06-24T14:44:02;27.10;99.90
13598;DHT22;38563;54.258;12.574;2023-06-24T14:46:29;27.40;99.90
13598;DHT22;38563;54.258;12.574;2023-06-24T14:48:57;27.20;99.90
13598;DHT22;38563;54.258;12.574;2023-06-24T14:51:24;26.90;99.90
13598;DHT22;38563;54.258;12.574;2023-06-24T14:53:51;26.70;99.90
13598;DHT22;38563;54.258;12.574;2023-06-24T14:56:17;26.40;99.90
13598;DHT22;38563;54.258;12.574;2023-06-24T14:58:44;26.00;99.90
13598;DHT22;38563;54.258;12.574;2023-06-24T15:01:11;25.30;99.90
13598;DHT22;38563;54.258;12.574;2023-06-24T15:03:37;24.60;99.90
13598;DHT22;38563;54.258;12.574;2023-06-24T15:06:05;24.30;99.90
13598;DHT22;38563;54.258;12.574;2023-06-24T15:08:32;24.10;99.90
13598;DHT22;38563;54.258;12.574;2023-06-24T15:10:59;24.20;99.90
13598;DHT22;38563;54.258;12.574;2023-06-24T15:13:25;24.20;99.90
13598;DHT22;38563;54.258;12.574;2023-06-24T15:15:52;24.30;99.90
13598;DHT22;38563;54.258;12.574;2023-06-24T15:18:21;24.30;99.90
13598;DHT22;38563;54.258;12.574;2023-06-24T15:20:48;24.00;99.90